Marinicki — 9HWU9 — position and weather

sailwx.info

Track history (hours):
 
Tides and Currents Weather Stations Pressure Air Temp Water Temp Dewpoint Dewpoint Depression Visibility Wind Speed Wind Dir Waves Ship Positions

Marinicki

Last reported at 2015-Jan-26 16:27 UTC. Time now 2015-Feb-01 07:09 UTC.
Position N 39°44' W 027°41'.

Length 218 m; draft 13.4 m.

Type: Ship. MMSI: 249650000.

Date/timePositionNaut miles runAvg speedWind from/ knotsBaromVisibWave heightAir tempDewpointWater temp
2015-Jan-26 16:27N 39°44' W 027°41'1011.1
2015-Jan-26 15:31N 39°38' W 027°52'1111.1
2015-Jan-26 14:33N 39°33' W 028°05'1111.1
2015-Jan-26 13:33N 39°27' W 028°17'1110.7
2015-Jan-26 12:33N 39°21' W 028°29'1110.8
2015-Jan-26 11:33N 39°16' W 028°41'1110.7
2015-Jan-26 10:33N 39°10' W 028°53'1111.1
2015-Jan-26 09:33N 39°04' W 029°05'1110.8
2015-Jan-26 08:33N 38°59' W 029°17'1111.1
2015-Jan-26 07:34N 38°53' W 029°29'1111.2
2015-Jan-26 06:33N 38°47' W 029°41'1111.4
2015-Jan-26 05:33N 38°41' W 029°54'1111.1
2015-Jan-26 04:33N 38°35' W 030°06'1111.1
2015-Jan-26 03:34N 38°30' W 030°18'1111.2
2015-Jan-26 02:33N 38°24' W 030°30'1111.2
2015-Jan-26 01:32N 38°18' W 030°42'1111.1
2015-Jan-26 00:31N 38°12' W 030°55'1110.6
2015-Jan-25 23:32N 38°06' W 031°06'  
2015-Jan-17 03:26N 37°54' W 076°09'1011.7
2015-Jan-17 02:32N 38°04' W 076°13'4711.8
2015-Jan-16 22:33N 38°51' W 076°24'1211.5
2015-Jan-16 21:33N 39°02' W 076°23'10 9.7
2015-Jan-16 20:33N 39°11' W 076°27'7 6.8
2015-Jan-16 19:34N 39°15' W 076°34'0 0.2
2015-Jan-16 18:31N 39°15' W 076°34'0 0.0
2015-Jan-16 17:31N 39°15' W 076°34'0 0.0
2015-Jan-16 16:31N 39°15' W 076°34'  
Track history (hours):
 
Tides and Currents Weather Stations Pressure Air Temp Water Temp Dewpoint Dewpoint Depression Visibility Wind Speed Wind Dir Waves Ship Positions

Marinicki

Last reported at 2015-Jan-26 16:27 UTC. Time now 2015-Feb-01 07:09 UTC.
Position N 39°44' W 027°41'.

Length 218 m; draft 13.4 m.

Type: Ship. MMSI: 249650000.

Date/timePositionNaut miles runAvg speedWind from/ knotsBaromVisibWave heightAir tempDewpointWater temp
2015-Jan-26 16:27N 39°44' W 027°41'1011.1
2015-Jan-26 15:31N 39°38' W 027°52'1111.1
2015-Jan-26 14:33N 39°33' W 028°05'1111.1
2015-Jan-26 13:33N 39°27' W 028°17'1110.7
2015-Jan-26 12:33N 39°21' W 028°29'1110.8
2015-Jan-26 11:33N 39°16' W 028°41'1110.7
2015-Jan-26 10:33N 39°10' W 028°53'1111.1
2015-Jan-26 09:33N 39°04' W 029°05'1110.8
2015-Jan-26 08:33N 38°59' W 029°17'1111.1
2015-Jan-26 07:34N 38°53' W 029°29'1111.2
2015-Jan-26 06:33N 38°47' W 029°41'1111.4
2015-Jan-26 05:33N 38°41' W 029°54'1111.1
2015-Jan-26 04:33N 38°35' W 030°06'1111.1
2015-Jan-26 03:34N 38°30' W 030°18'1111.2
2015-Jan-26 02:33N 38°24' W 030°30'1111.2
2015-Jan-26 01:32N 38°18' W 030°42'1111.1
2015-Jan-26 00:31N 38°12' W 030°55'1110.6
2015-Jan-25 23:32N 38°06' W 031°06'  
2015-Jan-17 03:26N 37°54' W 076°09'1011.7
2015-Jan-17 02:32N 38°04' W 076°13'4711.8
2015-Jan-16 22:33N 38°51' W 076°24'1211.5
2015-Jan-16 21:33N 39°02' W 076°23'10 9.7
2015-Jan-16 20:33N 39°11' W 076°27'7 6.8
2015-Jan-16 19:34N 39°15' W 076°34'0 0.2
2015-Jan-16 18:31N 39°15' W 076°34'0 0.0
2015-Jan-16 17:31N 39°15' W 076°34'0 0.0
2015-Jan-16 16:31N 39°15' W 076°34'  

Dump ship's entire track history